sensor_id;sensor_type;location;lat;lon;timestamp;temperature;humidity
55213;DHT22;41083;52.932;6.674;2022-11-15T00:00:55;8.00;99.90
55213;DHT22;41083;52.932;6.674;2022-11-15T00:03:23;8.00;99.90
55213;DHT22;41083;52.932;6.674;2022-11-15T00:05:49;8.00;99.90
55213;DHT22;41083;52.932;6.674;2022-11-15T00:08:15;7.90;99.90
55213;DHT22;41083;52.932;6.674;2022-11-15T00:10:41;7.90;99.90
55213;DHT22;41083;52.932;6.674;2022-11-15T00:13:09;7.90;99.90
55213;DHT22;41083;52.932;6.674;2022-11-15T00:15:39;7.80;99.90
55213;DHT22;41083;52.932;6.674;2022-11-15T00:18:06;7.90;99.90
55213;DHT22;41083;52.932;6.674;2022-11-15T00:20:36;7.90;99.90
55213;DHT22;41083;52.932;6.674;2022-11-15T00:23:03;7.90;99.90
55213;DHT22;41083;52.932;6.674;2022-11-15T00:25:29;7.90;99.90
55213;DHT22;41083;52.932;6.674;2022-11-15T00:27:56;7.90;99.90
55213;DHT22;41083;52.932;6.674;2022-11-15T00:30:22;7.90;99.90
55213;DHT22;41083;52.932;6.674;2022-11-15T00:32:47;8.00;99.90
55213;DHT22;41083;52.932;6.674;2022-11-15T00:35:13;8.00;99.90
55213;DHT22;41083;52.932;6.674;2022-11-15T00:37:39;8.00;99.90
55213;DHT22;41083;52.932;6.674;2022-11-15T00:40:05;8.00;99.90
55213;DHT22;41083;52.932;6.674;2022-11-15T00:42:30;8.00;99.90
55213;DHT22;41083;52.932;6.674;2022-11-15T00:44:56;8.00;99.90
55213;DHT22;41083;52.932;6.674;2022-11-15T00:47:21;8.00;99.90
55213;DHT22;41083;52.932;6.674;2022-11-15T00:49:47;8.00;99.90
55213;DHT22;41083;52.932;6.674;2022-11-15T00:52:13;8.00;99.90
55213;DHT22;41083;52.932;6.674;2022-11-15T00:54:38;8.00;99.90
55213;DHT22;41083;52.932;6.674;2022-11-15T00:57:04;8.00;99.90
55213;DHT22;41083;52.932;6.674;2022-11-15T00:59:30;8.00;99.90
55213;DHT22;41083;52.932;6.674;2022-11-15T01:01:55;8.00;99.90
55213;DHT22;41083;52.932;6.674;2022-11-15T01:04:21;8.00;99.90
55213;DHT22;41083;52.932;6.674;2022-11-15T01:06:47;8.00;99.90
55213;DHT22;41083;52.932;6.674;2022-11-15T01:09:13;8.00;99.90
55213;DHT22;41083;52.932;6.674;2022-11-15T01:11:39;8.10;99.90
55213;DHT22;41083;52.932;6.674;2022-11-15T01:14:04;8.00;99.90
55213;DHT22;41083;52.932;6.674;2022-11-15T01:16:30;8.00;99.90
55213;DHT22;41083;52.932;6.674;2022-11-15T01:18:56;8.10;99.90
55213;DHT22;41083;52.932;6.674;2022-11-15T01:21:22;8.00;99.90
55213;DHT22;41083;52.932;6.674;2022-11-15T01:23:47;8.00;99.90
55213;DHT22;41083;52.932;6.674;2022-11-15T01:26:14;8.10;99.90
55213;DHT22;41083;52.932;6.674;2022-11-15T01:28:41;8.00;99.90
55213;DHT22;41083;52.932;6.674;2022-11-15T01:31:14;8.00;99.90
55213;DHT22;41083;52.932;6.674;2022-11-15T01:33:40;8.10;99.90
55213;DHT22;41083;52.932;6.674;2022-11-15T01:36:07;8.10;99.90
55213;DHT22;41083;52.932;6.674;2022-11-15T01:38:33;8.10;99.90
55213;DHT22;41083;52.932;6.674;2022-11-15T01:40:59;8.10;99.90
55213;DHT22;41083;52.932;6.674;2022-11-15T01:43:33;8.10;99.90
55213;DHT22;41083;52.932;6.674;2022-11-15T01:46:47;8.10;99.90
55213;DHT22;41083;52.932;6.674;2022-11-15T01:48:50;8.10;99.90
55213;DHT22;41083;52.932;6.674;2022-11-15T01:51:18;8.10;99.90
55213;DHT22;41083;52.932;6.674;2022-11-15T01:53:48;8.10;99.90
55213;DHT22;41083;52.932;6.674;2022-11-15T01:56:18;8.10;99.90
55213;DHT22;41083;52.932;6.674;2022-11-15T01:58:45;8.10;99.90
55213;DHT22;41083;52.932;6.674;2022-11-15T02:01:12;8.10;99.90
55213;DHT22;41083;52.932;6.674;2022-11-15T02:03:58;8.20;99.90
55213;DHT22;41083;52.932;6.674;2022-11-15T02:06:24;8.20;99.90
55213;DHT22;41083;52.932;6.674;2022-11-15T02:08:50;8.20;99.90
55213;DHT22;41083;52.932;6.674;2022-11-15T02:11:17;8.20;99.90
55213;DHT22;41083;52.932;6.674;2022-11-15T02:13:43;8.20;99.90
55213;DHT22;41083;52.932;6.674;2022-11-15T02:19:08;8.20;99.90
55213;DHT22;41083;52.932;6.674;2022-11-15T02:21:56;8.20;99.90
55213;DHT22;41083;52.932;6.674;2022-11-15T02:24:46;8.20;99.90
55213;DHT22;41083;52.932;6.674;2022-11-15T02:27:19;8.30;99.90
55213;DHT22;41083;52.932;6.674;2022-11-15T02:37:58;8.30;99.90
55213;DHT22;41083;52.932;6.674;2022-11-15T02:40:37;8.30;99.90
55213;DHT22;41083;52.932;6.674;2022-11-15T02:43:10;8.30;99.90
55213;DHT22;41083;52.932;6.674;2022-11-15T02:46:31;8.30;99.90
55213;DHT22;41083;52.932;6.674;2022-11-15T02:49:17;8.30;99.90
55213;DHT22;41083;52.932;6.674;2022-11-15T02:51:45;8.30;99.90
55213;DHT22;41083;52.932;6.674;2022-11-15T02:54:22;8.30;99.90
55213;DHT22;41083;52.932;6.674;2022-11-15T02:56:49;8.30;99.90
55213;DHT22;41083;52.932;6.674;2022-11-15T03:10:48;8.40;99.90
55213;DHT22;41083;52.932;6.674;2022-11-15T03:16:03;8.40;99.90
55213;DHT22;41083;52.932;6.674;2022-11-15T03:18:38;8.40;99.90
55213;DHT22;41083;52.932;6.674;2022-11-15T03:21:08;8.40;99.90
55213;DHT22;41083;52.932;6.674;2022-11-15T03:23:36;8.40;99.90
55213;DHT22;41083;52.932;6.674;2022-11-15T03:26:06;8.40;99.90
55213;DHT22;41083;52.932;6.674;2022-11-15T03:28:43;8.40;99.90
55213;DHT22;41083;52.932;6.674;2022-11-15T03:31:12;8.40;99.90
55213;DHT22;41083;52.932;6.674;2022-11-15T03:33:59;8.40;99.90
55213;DHT22;41083;52.932;6.674;2022-11-15T03:36:26;8.40;99.90
55213;DHT22;41083;52.932;6.674;2022-11-15T03:39:00;8.40;99.90
55213;DHT22;41083;52.932;6.674;2022-11-15T03:44:20;8.50;99.90
55213;DHT22;41083;52.932;6.674;2022-11-15T03:47:01;8.40;99.90
55213;DHT22;41083;52.932;6.674;2022-11-15T03:49:31;8.50;99.90
55213;DHT22;41083;52.932;6.674;2022-11-15T03:51:58;8.50;99.90
55213;DHT22;41083;52.932;6.674;2022-11-15T03:54:24;8.50;99.90
55213;DHT22;41083;52.932;6.674;2022-11-15T03:56:50;8.50;99.90
55213;DHT22;41083;52.932;6.674;2022-11-15T03:59:15;8.50;99.90
55213;DHT22;41083;52.932;6.674;2022-11-15T04:01:41;8.50;99.90
55213;DHT22;41083;52.932;6.674;2022-11-15T04:04:06;8.50;99.90
55213;DHT22;41083;52.932;6.674;2022-11-15T04:06:32;8.50;99.90
55213;DHT22;41083;52.932;6.674;2022-11-15T04:08:58;8.50;99.90
55213;DHT22;41083;52.932;6.674;2022-11-15T04:11:23;8.50;99.90
55213;DHT22;41083;52.932;6.674;2022-11-15T04:13:49;8.60;99.90
55213;DHT22;41083;52.932;6.674;2022-11-15T04:16:14;8.60;99.90
55213;DHT22;41083;52.932;6.674;2022-11-15T04:18:40;8.60;99.90
55213;DHT22;41083;52.932;6.674;2022-11-15T04:21:06;8.60;99.90
55213;DHT22;41083;52.932;6.674;2022-11-15T04:23:51;8.60;99.90
55213;DHT22;41083;52.932;6.674;2022-11-15T04:26:19;8.60;99.90
55213;DHT22;41083;52.932;6.674;2022-11-15T04:28:46;8.60;99.90
55213;DHT22;41083;52.932;6.674;2022-11-15T04:31:30;8.60;99.90
55213;DHT22;41083;52.932;6.674;2022-11-15T04:33:55;8.70;99.90
55213;DHT22;41083;52.932;6.674;2022-11-15T04:36:22;8.70;99.90
55213;DHT22;41083;52.932;6.674;2022-11-15T04:39:06;8.70;99.90
55213;DHT22;41083;52.932;6.674;2022-11-15T04:41:31;8.70;99.90
55213;DHT22;41083;52.932;6.674;2022-11-15T04:43:57;8.80;99.90
55213;DHT22;41083;52.932;6.674;2022-11-15T04:46:23;8.80;99.90
55213;DHT22;41083;52.932;6.674;2022-11-15T04:48:49;8.80;99.90
55213;DHT22;41083;52.932;6.674;2022-11-15T04:51:15;8.80;99.90
55213;DHT22;41083;52.932;6.674;2022-11-15T04:53:41;8.80;99.90
55213;DHT22;41083;52.932;6.674;2022-11-15T04:56:07;8.80;99.90
55213;DHT22;41083;52.932;6.674;2022-11-15T04:58:33;8.80;99.90
55213;DHT22;41083;52.932;6.674;2022-11-15T05:01:07;8.90;99.90
55213;DHT22;41083;52.932;6.674;2022-11-15T05:03:33;8.90;99.90
55213;DHT22;41083;52.932;6.674;2022-11-15T05:06:17;8.90;99.90
55213;DHT22;41083;52.932;6.674;2022-11-15T05:08:42;8.90;99.90
55213;DHT22;41083;52.932;6.674;2022-11-15T05:11:08;8.90;99.90
55213;DHT22;41083;52.932;6.674;2022-11-15T05:13:34;9.00;99.90
55213;DHT22;41083;52.932;6.674;2022-11-15T05:15:59;9.00;99.90
55213;DHT22;41083;52.932;6.674;2022-11-15T05:18:25;9.00;99.90
55213;DHT22;41083;52.932;6.674;2022-11-15T05:20:50;9.00;99.90
55213;DHT22;41083;52.932;6.674;2022-11-15T05:23:16;9.10;99.90
55213;DHT22;41083;52.932;6.674;2022-11-15T05:25:41;9.10;99.90
55213;DHT22;41083;52.932;6.674;2022-11-15T05:28:07;9.10;99.90
55213;DHT22;41083;52.932;6.674;2022-11-15T05:30:33;9.10;99.90
55213;DHT22;41083;52.932;6.674;2022-11-15T05:32:59;9.20;99.90
55213;DHT22;41083;52.932;6.674;2022-11-15T05:35:46;9.20;99.90
55213;DHT22;41083;52.932;6.674;2022-11-15T05:38:14;9.20;99.90
55213;DHT22;41083;52.932;6.674;2022-11-15T05:40:39;9.20;99.90
55213;DHT22;41083;52.932;6.674;2022-11-15T05:43:06;9.30;99.90
55213;DHT22;41083;52.932;6.674;2022-11-15T05:45:32;9.30;99.90
55213;DHT22;41083;52.932;6.674;2022-11-15T05:48:01;9.30;99.90
55213;DHT22;41083;52.932;6.674;2022-11-15T05:50:30;9.30;99.90
55213;DHT22;41083;52.932;6.674;2022-11-15T05:52:56;9.30;99.90
55213;DHT22;41083;52.932;6.674;2022-11-15T05:55:22;9.40;99.90
55213;DHT22;41083;52.932;6.674;2022-11-15T05:57:47;9.40;99.90
55213;DHT22;41083;52.932;6.674;2022-11-15T06:00:13;9.40;99.90
55213;DHT22;41083;52.932;6.674;2022-11-15T06:02:39;9.40;99.90
55213;DHT22;41083;52.932;6.674;2022-11-15T06:05:05;9.50;99.90
55213;DHT22;41083;52.932;6.674;2022-11-15T06:07:30;9.50;99.90
55213;DHT22;41083;52.932;6.674;2022-11-15T06:09:56;9.50;99.90
55213;DHT22;41083;52.932;6.674;2022-11-15T06:12:21;9.50;99.90
55213;DHT22;41083;52.932;6.674;2022-11-15T06:14:47;9.60;99.90
55213;DHT22;41083;52.932;6.674;2022-11-15T06:17:13;9.60;99.90
55213;DHT22;41083;52.932;6.674;2022-11-15T06:19:38;9.60;99.90
55213;DHT22;41083;52.932;6.674;2022-11-15T06:22:04;9.60;99.90
55213;DHT22;41083;52.932;6.674;2022-11-15T06:24:29;9.60;99.90
55213;DHT22;41083;52.932;6.674;2022-11-15T06:26:55;9.60;99.90
55213;DHT22;41083;52.932;6.674;2022-11-15T06:29:20;9.70;99.90
55213;DHT22;41083;52.932;6.674;2022-11-15T06:31:46;9.70;99.90
55213;DHT22;41083;52.932;6.674;2022-11-15T06:34:12;9.70;99.90
55213;DHT22;41083;52.932;6.674;2022-11-15T06:36:37;9.70;99.90
55213;DHT22;41083;52.932;6.674;2022-11-15T06:39:04;9.80;99.90
55213;DHT22;41083;52.932;6.674;2022-11-15T06:41:29;9.80;99.90
55213;DHT22;41083;52.932;6.674;2022-11-15T06:43:56;9.80;99.90
55213;DHT22;41083;52.932;6.674;2022-11-15T06:46:22;9.80;99.90
55213;DHT22;41083;52.932;6.674;2022-11-15T06:48:50;9.80;99.90
55213;DHT22;41083;52.932;6.674;2022-11-15T06:51:16;9.90;99.90
55213;DHT22;41083;52.932;6.674;2022-11-15T06:53:42;9.90;99.90
55213;DHT22;41083;52.932;6.674;2022-11-15T06:56:07;9.90;99.90
55213;DHT22;41083;52.932;6.674;2022-11-15T06:58:33;9.90;99.90
55213;DHT22;41083;52.932;6.674;2022-11-15T07:01:04;9.90;99.90
55213;DHT22;41083;52.932;6.674;2022-11-15T07:03:30;9.90;99.90
55213;DHT22;41083;52.932;6.674;2022-11-15T07:05:57;9.90;99.90
55213;DHT22;41083;52.932;6.674;2022-11-15T07:08:23;10.00;99.90
55213;DHT22;41083;52.932;6.674;2022-11-15T07:10:49;10.00;99.90
55213;DHT22;41083;52.932;6.674;2022-11-15T07:13:15;10.00;99.90
55213;DHT22;41083;52.932;6.674;2022-11-15T07:15:41;10.00;99.90
55213;DHT22;41083;52.932;6.674;2022-11-15T07:18:07;10.00;99.90
55213;DHT22;41083;52.932;6.674;2022-11-15T07:20:32;10.00;99.90
55213;DHT22;41083;52.932;6.674;2022-11-15T07:23:02;10.00;99.90
55213;DHT22;41083;52.932;6.674;2022-11-15T07:25:28;10.00;99.90
55213;DHT22;41083;52.932;6.674;2022-11-15T07:27:55;10.10;99.90
55213;DHT22;41083;52.932;6.674;2022-11-15T07:30:20;10.10;99.90
55213;DHT22;41083;52.932;6.674;2022-11-15T07:32:46;10.10;99.90
55213;DHT22;41083;52.932;6.674;2022-11-15T07:35:11;10.10;99.90
55213;DHT22;41083;52.932;6.674;2022-11-15T07:37:37;10.10;99.90
55213;DHT22;41083;52.932;6.674;2022-11-15T07:40:03;10.10;99.90
55213;DHT22;41083;52.932;6.674;2022-11-15T07:42:31;10.10;99.90
55213;DHT22;41083;52.932;6.674;2022-11-15T07:45:16;10.10;99.90
55213;DHT22;41083;52.932;6.674;2022-11-15T07:47:45;10.20;99.90
55213;DHT22;41083;52.932;6.674;2022-11-15T07:50:11;10.20;99.90
55213;DHT22;41083;52.932;6.674;2022-11-15T07:52:36;10.20;99.90
55213;DHT22;41083;52.932;6.674;2022-11-15T07:55:02;10.20;99.90
55213;DHT22;41083;52.932;6.674;2022-11-15T07:57:29;10.20;99.90
55213;DHT22;41083;52.932;6.674;2022-11-15T07:59:55;10.30;99.90
55213;DHT22;41083;52.932;6.674;2022-11-15T08:02:20;10.30;99.90
55213;DHT22;41083;52.932;6.674;2022-11-15T08:04:46;10.30;99.90
55213;DHT22;41083;52.932;6.674;2022-11-15T08:07:12;10.30;99.90
55213;DHT22;41083;52.932;6.674;2022-11-15T08:09:38;10.40;99.90
55213;DHT22;41083;52.932;6.674;2022-11-15T08:12:03;10.40;99.90
55213;DHT22;41083;52.932;6.674;2022-11-15T08:14:29;10.40;99.90
55213;DHT22;41083;52.932;6.674;2022-11-15T08:16:55;10.40;99.90
55213;DHT22;41083;52.932;6.674;2022-11-15T08:19:20;10.30;99.90
55213;DHT22;41083;52.932;6.674;2022-11-15T08:21:46;10.40;99.90
55213;DHT22;41083;52.932;6.674;2022-11-15T08:24:12;10.40;99.90
55213;DHT22;41083;52.932;6.674;2022-11-15T08:26:38;10.40;99.90
55213;DHT22;41083;52.932;6.674;2022-11-15T08:29:05;10.50;99.90
55213;DHT22;41083;52.932;6.674;2022-11-15T08:31:30;10.50;99.90
55213;DHT22;41083;52.932;6.674;2022-11-15T08:33:56;10.50;99.90
55213;DHT22;41083;52.932;6.674;2022-11-15T08:36:22;10.50;99.90
55213;DHT22;41083;52.932;6.674;2022-11-15T08:38:47;10.60;99.90
55213;DHT22;41083;52.932;6.674;2022-11-15T08:41:27;10.60;99.90
55213;DHT22;41083;52.932;6.674;2022-11-15T08:43:53;10.60;99.90
55213;DHT22;41083;52.932;6.674;2022-11-15T08:46:19;10.70;99.90
55213;DHT22;41083;52.932;6.674;2022-11-15T08:48:45;10.70;99.90
55213;DHT22;41083;52.932;6.674;2022-11-15T08:51:10;10.80;99.90
55213;DHT22;41083;52.932;6.674;2022-11-15T08:53:36;10.80;99.90
55213;DHT22;41083;52.932;6.674;2022-11-15T08:56:02;10.80;99.90
55213;DHT22;41083;52.932;6.674;2022-11-15T08:58:28;10.80;99.90
55213;DHT22;41083;52.932;6.674;2022-11-15T09:00:54;10.80;99.90
55213;DHT22;41083;52.932;6.674;2022-11-15T09:03:20;10.80;99.90
55213;DHT22;41083;52.932;6.674;2022-11-15T09:05:46;10.80;99.90
55213;DHT22;41083;52.932;6.674;2022-11-15T09:08:12;10.80;99.90
55213;DHT22;41083;52.932;6.674;2022-11-15T09:10:38;10.90;99.90
55213;DHT22;41083;52.932;6.674;2022-11-15T09:13:03;10.90;99.90
55213;DHT22;41083;52.932;6.674;2022-11-15T09:15:29;10.90;99.90
55213;DHT22;41083;52.932;6.674;2022-11-15T09:17:58;10.90;99.90
55213;DHT22;41083;52.932;6.674;2022-11-15T09:20:24;10.90;99.90
55213;DHT22;41083;52.932;6.674;2022-11-15T09:22:49;11.00;99.90
55213;DHT22;41083;52.932;6.674;2022-11-15T09:25:15;11.00;99.90
55213;DHT22;41083;52.932;6.674;2022-11-15T09:27:40;11.00;99.90
55213;DHT22;41083;52.932;6.674;2022-11-15T09:30:06;11.00;99.90
55213;DHT22;41083;52.932;6.674;2022-11-15T09:32:32;11.10;99.90
55213;DHT22;41083;52.932;6.674;2022-11-15T09:34:58;11.10;99.90
55213;DHT22;41083;52.932;6.674;2022-11-15T09:37:23;11.10;99.90
55213;DHT22;41083;52.932;6.674;2022-11-15T09:39:49;11.10;99.90
55213;DHT22;41083;52.932;6.674;2022-11-15T09:42:28;11.10;99.90
55213;DHT22;41083;52.932;6.674;2022-11-15T09:50:47;11.10;99.90
55213;DHT22;41083;52.932;6.674;2022-11-15T09:53:52;11.10;99.90
55213;DHT22;41083;52.932;6.674;2022-11-15T09:56:25;11.10;99.90
55213;DHT22;41083;52.932;6.674;2022-11-15T10:04:28;11.10;99.90
55213;DHT22;41083;52.932;6.674;2022-11-15T10:12:19;11.10;99.90
55213;DHT22;41083;52.932;6.674;2022-11-15T10:14:45;11.10;99.90
55213;DHT22;41083;52.932;6.674;2022-11-15T10:17:31;11.20;99.90
55213;DHT22;41083;52.932;6.674;2022-11-15T10:20:23;11.20;99.90
55213;DHT22;41083;52.932;6.674;2022-11-15T10:22:52;11.10;99.90
55213;DHT22;41083;52.932;6.674;2022-11-15T10:25:22;11.10;99.90
55213;DHT22;41083;52.932;6.674;2022-11-15T10:28:01;11.10;99.90
55213;DHT22;41083;52.932;6.674;2022-11-15T10:30:36;11.20;99.90
55213;DHT22;41083;52.932;6.674;2022-11-15T10:33:13;11.10;99.90
55213;DHT22;41083;52.932;6.674;2022-11-15T10:35:43;11.20;99.90
55213;DHT22;41083;52.932;6.674;2022-11-15T10:38:11;11.20;99.90
55213;DHT22;41083;52.932;6.674;2022-11-15T10:40:38;11.20;99.90
55213;DHT22;41083;52.932;6.674;2022-11-15T10:43:17;11.30;99.90
55213;DHT22;41083;52.932;6.674;2022-11-15T10:45:43;11.30;99.90
55213;DHT22;41083;52.932;6.674;2022-11-15T10:50:40;11.40;99.90
55213;DHT22;41083;52.932;6.674;2022-11-15T10:53:27;11.50;99.90
55213;DHT22;41083;52.932;6.674;2022-11-15T10:55:57;11.50;99.90
55213;DHT22;41083;52.932;6.674;2022-11-15T10:58:53;11.50;99.90
55213;DHT22;41083;52.932;6.674;2022-11-15T11:01:22;11.50;99.90
55213;DHT22;41083;52.932;6.674;2022-11-15T11:04:03;11.50;99.90
55213;DHT22;41083;52.932;6.674;2022-11-15T11:06:29;11.50;99.90
55213;DHT22;41083;52.932;6.674;2022-11-15T11:09:00;11.50;99.90
55213;DHT22;41083;52.932;6.674;2022-11-15T11:11:46;11.50;99.90
55213;DHT22;41083;52.932;6.674;2022-11-15T11:14:21;11.60;99.90
55213;DHT22;41083;52.932;6.674;2022-11-15T11:16:55;11.60;99.90
55213;DHT22;41083;52.932;6.674;2022-11-15T11:22:17;11.50;99.90
55213;DHT22;41083;52.932;6.674;2022-11-15T11:25:10;11.50;99.90
55213;DHT22;41083;52.932;6.674;2022-11-15T11:28:08;11.50;99.90
55213;DHT22;41083;52.932;6.674;2022-11-15T11:33:54;11.50;99.90
55213;DHT22;41083;52.932;6.674;2022-11-15T11:36:26;11.50;99.90
55213;DHT22;41083;52.932;6.674;2022-11-15T11:42:02;11.50;99.90
55213;DHT22;41083;52.932;6.674;2022-11-15T11:47:11;11.50;99.90
55213;DHT22;41083;52.932;6.674;2022-11-15T11:49:54;11.50;99.90
55213;DHT22;41083;52.932;6.674;2022-11-15T11:52:30;11.40;99.90
55213;DHT22;41083;52.932;6.674;2022-11-15T11:54:59;11.40;99.90
55213;DHT22;41083;52.932;6.674;2022-11-15T11:57:41;11.40;99.90
55213;DHT22;41083;52.932;6.674;2022-11-15T12:00:24;11.30;99.90
55213;DHT22;41083;52.932;6.674;2022-11-15T12:05:51;11.30;99.90
55213;DHT22;41083;52.932;6.674;2022-11-15T12:08:24;11.30;99.90
55213;DHT22;41083;52.932;6.674;2022-11-15T12:11:22;11.30;99.90
55213;DHT22;41083;52.932;6.674;2022-11-15T12:13:49;11.30;99.90
55213;DHT22;41083;52.932;6.674;2022-11-15T12:16:26;11.30;99.90
55213;DHT22;41083;52.932;6.674;2022-11-15T12:18:54;11.20;99.90
55213;DHT22;41083;52.932;6.674;2022-11-15T12:21:32;11.20;99.90
55213;DHT22;41083;52.932;6.674;2022-11-15T12:27:08;11.30;99.90
55213;DHT22;41083;52.932;6.674;2022-11-15T12:29:43;11.20;99.90
55213;DHT22;41083;52.932;6.674;2022-11-15T12:34:49;11.30;99.90
55213;DHT22;41083;52.932;6.674;2022-11-15T12:40:28;11.40;99.90
55213;DHT22;41083;52.932;6.674;2022-11-15T12:45:29;11.40;99.90
55213;DHT22;41083;52.932;6.674;2022-11-15T12:58:55;11.60;99.90
55213;DHT22;41083;52.932;6.674;2022-11-15T13:11:55;11.70;99.90
55213;DHT22;41083;52.932;6.674;2022-11-15T13:17:09;11.80;99.90
55213;DHT22;41083;52.932;6.674;2022-11-15T13:19:37;11.80;99.90
55213;DHT22;41083;52.932;6.674;2022-11-15T13:22:08;11.80;99.90
55213;DHT22;41083;52.932;6.674;2022-11-15T13:24:52;11.80;99.90
55213;DHT22;41083;52.932;6.674;2022-11-15T13:27:19;11.70;99.90
55213;DHT22;41083;52.932;6.674;2022-11-15T13:29:45;11.70;99.90
55213;DHT22;41083;52.932;6.674;2022-11-15T13:32:13;11.70;99.90
55213;DHT22;41083;52.932;6.674;2022-11-15T13:34:43;11.60;99.90
55213;DHT22;41083;52.932;6.674;2022-11-15T13:37:28;11.70;99.90
55213;DHT22;41083;52.932;6.674;2022-11-15T13:39:55;11.60;99.90
55213;DHT22;41083;52.932;6.674;2022-11-15T13:42:34;11.60;99.90
55213;DHT22;41083;52.932;6.674;2022-11-15T13:45:03;11.60;99.90
55213;DHT22;41083;52.932;6.674;2022-11-15T13:47:30;11.60;99.90
55213;DHT22;41083;52.932;6.674;2022-11-15T13:49:58;11.50;99.90
55213;DHT22;41083;52.932;6.674;2022-11-15T13:52:31;11.60;99.90
55213;DHT22;41083;52.932;6.674;2022-11-15T13:55:10;11.50;99.90
55213;DHT22;41083;52.932;6.674;2022-11-15T13:57:45;11.50;99.90
55213;DHT22;41083;52.932;6.674;2022-11-15T14:00:37;11.60;99.90
55213;DHT22;41083;52.932;6.674;2022-11-15T14:03:21;11.50;99.90
55213;DHT22;41083;52.932;6.674;2022-11-15T14:08:33;11.50;99.90
55213;DHT22;41083;52.932;6.674;2022-11-15T14:13:34;11.50;99.90
55213;DHT22;41083;52.932;6.674;2022-11-15T14:16:20;11.40;99.90
55213;DHT22;41083;52.932;6.674;2022-11-15T14:18:51;11.40;99.90
55213;DHT22;41083;52.932;6.674;2022-11-15T14:21:18;11.40;99.90
55213;DHT22;41083;52.932;6.674;2022-11-15T14:23:44;11.40;99.90
55213;DHT22;41083;52.932;6.674;2022-11-15T14:26:33;11.30;99.90
55213;DHT22;41083;52.932;6.674;2022-11-15T14:29:25;11.30;99.90
55213;DHT22;41083;52.932;6.674;2022-11-15T14:31:51;11.30;99.90
55213;DHT22;41083;52.932;6.674;2022-11-15T14:34:17;11.30;99.90
55213;DHT22;41083;52.932;6.674;2022-11-15T14:36:43;11.30;99.90
55213;DHT22;41083;52.932;6.674;2022-11-15T14:39:09;11.20;99.90
55213;DHT22;41083;52.932;6.674;2022-11-15T14:41:36;11.20;99.90
55213;DHT22;41083;52.932;6.674;2022-11-15T14:44:06;11.20;99.90
55213;DHT22;41083;52.932;6.674;2022-11-15T14:46:32;11.20;99.90
55213;DHT22;41083;52.932;6.674;2022-11-15T14:48:57;11.20;99.90
55213;DHT22;41083;52.932;6.674;2022-11-15T14:51:23;11.10;99.90
55213;DHT22;41083;52.932;6.674;2022-11-15T14:53:49;11.10;99.90
55213;DHT22;41083;52.932;6.674;2022-11-15T14:56:15;11.10;99.90
55213;DHT22;41083;52.932;6.674;2022-11-15T14:58:42;11.10;99.90
55213;DHT22;41083;52.932;6.674;2022-11-15T15:01:19;11.00;99.90
55213;DHT22;41083;52.932;6.674;2022-11-15T15:03:45;11.00;99.90
55213;DHT22;41083;52.932;6.674;2022-11-15T15:06:11;11.00;99.90
55213;DHT22;41083;52.932;6.674;2022-11-15T15:08:38;11.00;99.90
55213;DHT22;41083;52.932;6.674;2022-11-15T15:11:28;10.90;99.90
55213;DHT22;41083;52.932;6.674;2022-11-15T15:13:55;10.90;99.90
55213;DHT22;41083;52.932;6.674;2022-11-15T15:16:23;10.90;99.90
55213;DHT22;41083;52.932;6.674;2022-11-15T15:18:49;10.90;99.90
55213;DHT22;41083;52.932;6.674;2022-11-15T15:21:28;10.80;99.90
55213;DHT22;41083;52.932;6.674;2022-11-15T15:23:54;10.80;99.90
55213;DHT22;41083;52.932;6.674;2022-11-15T15:26:20;10.80;99.90
55213;DHT22;41083;52.932;6.674;2022-11-15T15:28:46;10.80;99.90
55213;DHT22;41083;52.932;6.674;2022-11-15T15:31:14;10.80;99.90
55213;DHT22;41083;52.932;6.674;2022-11-15T15:33:39;10.90;99.90
55213;DHT22;41083;52.932;6.674;2022-11-15T15:36:13;10.90;99.90
55213;DHT22;41083;52.932;6.674;2022-11-15T15:38:38;10.90;99.90
55213;DHT22;41083;52.932;6.674;2022-11-15T15:41:14;10.90;99.90
55213;DHT22;41083;52.932;6.674;2022-11-15T15:43:40;10.90;99.90
55213;DHT22;41083;52.932;6.674;2022-11-15T15:46:14;10.90;99.90
55213;DHT22;41083;52.932;6.674;2022-11-15T15:48:40;10.90;99.90
55213;DHT22;41083;52.932;6.674;2022-11-15T15:51:06;10.90;99.90
55213;DHT22;41083;52.932;6.674;2022-11-15T15:53:32;10.90;99.90
55213;DHT22;41083;52.932;6.674;2022-11-15T15:55:58;10.90;99.90
55213;DHT22;41083;52.932;6.674;2022-11-15T15:58:23;10.90;99.90
55213;DHT22;41083;52.932;6.674;2022-11-15T16:00:49;10.90;99.90
55213;DHT22;41083;52.932;6.674;2022-11-15T16:03:14;10.90;99.90
55213;DHT22;41083;52.932;6.674;2022-11-15T16:05:40;10.90;99.90
55213;DHT22;41083;52.932;6.674;2022-11-15T16:08:18;10.90;99.90
55213;DHT22;41083;52.932;6.674;2022-11-15T16:10:44;10.90;99.90
55213;DHT22;41083;52.932;6.674;2022-11-15T16:13:09;10.90;99.90
55213;DHT22;41083;52.932;6.674;2022-11-15T16:15:35;10.90;99.90
55213;DHT22;41083;52.932;6.674;2022-11-15T16:18:03;10.90;99.90
55213;DHT22;41083;52.932;6.674;2022-11-15T16:20:46;10.90;99.90
55213;DHT22;41083;52.932;6.674;2022-11-15T16:23:16;10.90;99.90
55213;DHT22;41083;52.932;6.674;2022-11-15T16:25:48;10.90;99.90
55213;DHT22;41083;52.932;6.674;2022-11-15T16:28:21;10.80;99.90
55213;DHT22;41083;52.932;6.674;2022-11-15T16:30:48;10.80;99.90
55213;DHT22;41083;52.932;6.674;2022-11-15T16:33:14;10.80;99.90
55213;DHT22;41083;52.932;6.674;2022-11-15T16:35:39;10.80;99.90
55213;DHT22;41083;52.932;6.674;2022-11-15T16:38:06;10.80;99.90
55213;DHT22;41083;52.932;6.674;2022-11-15T16:40:33;10.80;99.90
55213;DHT22;41083;52.932;6.674;2022-11-15T16:43:00;10.80;99.90
55213;DHT22;41083;52.932;6.674;2022-11-15T16:45:27;10.80;99.90
55213;DHT22;41083;52.932;6.674;2022-11-15T16:47:55;10.80;99.90
55213;DHT22;41083;52.932;6.674;2022-11-15T16:50:26;10.80;99.90
55213;DHT22;41083;52.932;6.674;2022-11-15T16:52:56;10.90;99.90
55213;DHT22;41083;52.932;6.674;2022-11-15T16:55:25;10.90;99.90
55213;DHT22;41083;52.932;6.674;2022-11-15T16:57:51;10.90;99.90
55213;DHT22;41083;52.932;6.674;2022-11-15T17:00:18;10.80;99.90
55213;DHT22;41083;52.932;6.674;2022-11-15T17:02:47;10.80;99.90
55213;DHT22;41083;52.932;6.674;2022-11-15T17:05:14;10.80;99.90
55213;DHT22;41083;52.932;6.674;2022-11-15T17:07:40;10.90;99.90
55213;DHT22;41083;52.932;6.674;2022-11-15T17:10:06;10.80;99.90
55213;DHT22;41083;52.932;6.674;2022-11-15T17:12:34;10.80;99.90
55213;DHT22;41083;52.932;6.674;2022-11-15T17:15:00;10.90;99.90
55213;DHT22;41083;52.932;6.674;2022-11-15T17:17:25;10.90;99.90
55213;DHT22;41083;52.932;6.674;2022-11-15T17:19:52;10.80;99.90
55213;DHT22;41083;52.932;6.674;2022-11-15T17:22:18;10.80;99.90
55213;DHT22;41083;52.932;6.674;2022-11-15T17:24:44;10.80;99.90
55213;DHT22;41083;52.932;6.674;2022-11-15T17:27:09;10.80;99.90
55213;DHT22;41083;52.932;6.674;2022-11-15T17:29:35;10.80;99.90
55213;DHT22;41083;52.932;6.674;2022-11-15T17:32:01;10.80;99.90
55213;DHT22;41083;52.932;6.674;2022-11-15T17:34:27;10.80;99.90